sensor_id;sensor_type;location;lat;lon;timestamp;pressure;altitude;pressure_sealevel;temperature;humidity
5484;BME280;2764;48.794;8.326;2023-02-23T00:00:18;76635.81;;;-140.34;100.00
5484;BME280;2764;48.794;8.326;2023-02-23T00:01:29;76641.84;;;-140.34;100.00
5484;BME280;2764;48.794;8.326;2023-02-23T00:02:30;76637.81;;;-140.34;100.00
5484;BME280;2764;48.794;8.326;2023-02-23T00:03:32;76645.88;;;-140.34;100.00
5484;BME280;2764;48.794;8.326;2023-02-23T00:04:35;76647.88;;;-140.34;100.00
5484;BME280;2764;48.794;8.326;2023-02-23T00:05:37;76647.88;;;-140.34;100.00
5484;BME280;2764;48.794;8.326;2023-02-23T00:06:39;76647.88;;;-140.34;100.00
5484;BME280;2764;48.794;8.326;2023-02-23T00:07:44;76651.91;;;-140.34;100.00
5484;BME280;2764;48.794;8.326;2023-02-23T00:08:46;76647.88;;;-140.34;100.00
5484;BME280;2764;48.794;8.326;2023-02-23T00:09:52;76645.88;;;-140.34;100.00
5484;BME280;2764;48.794;8.326;2023-02-23T00:10:54;76647.88;;;-140.34;100.00
5484;BME280;2764;48.794;8.326;2023-02-23T00:11:59;76647.88;;;-140.34;100.00
5484;BME280;2764;48.794;8.326;2023-02-23T00:13:07;76647.88;;;-140.34;100.00
5484;BME280;2764;48.794;8.326;2023-02-23T00:14:11;76649.88;;;-140.34;100.00
5484;BME280;2764;48.794;8.326;2023-02-23T00:15:13;76649.88;;;-140.34;100.00
5484;BME280;2764;48.794;8.326;2023-02-23T00:16:18;76655.91;;;-140.34;100.00
5484;BME280;2764;48.794;8.326;2023-02-23T00:17:20;76655.91;;;-140.34;100.00
5484;BME280;2764;48.794;8.326;2023-02-23T00:18:24;76649.88;;;-140.34;100.00
5484;BME280;2764;48.794;8.326;2023-02-23T00:19:30;76649.88;;;-140.34;100.00
5484;BME280;2764;48.794;8.326;2023-02-23T00:20:34;76647.88;;;-140.34;100.00
5484;BME280;2764;48.794;8.326;2023-02-23T00:21:35;76649.88;;;-140.34;100.00
5484;BME280;2764;48.794;8.326;2023-02-23T00:22:40;76647.88;;;-140.34;100.00
5484;BME280;2764;48.794;8.326;2023-02-23T00:23:43;76643.84;;;-140.34;100.00
5484;BME280;2764;48.794;8.326;2023-02-23T00:24:48;76643.84;;;-140.34;100.00
5484;BME280;2764;48.794;8.326;2023-02-23T00:25:50;76637.81;;;-140.34;100.00
5484;BME280;2764;48.794;8.326;2023-02-23T00:26:52;76639.84;;;-140.34;100.00
5484;BME280;2764;48.794;8.326;2023-02-23T00:27:53;76635.81;;;-140.34;100.00
5484;BME280;2764;48.794;8.326;2023-02-23T00:28:56;76637.81;;;-140.34;100.00
5484;BME280;2764;48.794;8.326;2023-02-23T00:29:58;76635.81;;;-140.34;100.00
5484;BME280;2764;48.794;8.326;2023-02-23T00:31:03;76633.81;;;-140.34;100.00
5484;BME280;2764;48.794;8.326;2023-02-23T00:32:05;76637.81;;;-140.34;100.00
5484;BME280;2764;48.794;8.326;2023-02-23T00:33:07;76659.94;;;-140.34;100.00
5484;BME280;2764;48.794;8.326;2023-02-23T00:34:11;76637.81;;;-140.34;100.00
5484;BME280;2764;48.794;8.326;2023-02-23T00:35:14;76633.81;;;-140.34;100.00
5484;BME280;2764;48.794;8.326;2023-02-23T00:36:21;76631.78;;;-140.34;100.00
5484;BME280;2764;48.794;8.326;2023-02-23T00:37:23;76637.81;;;-140.34;100.00
5484;BME280;2764;48.794;8.326;2023-02-23T00:38:25;76639.84;;;-140.34;100.00
5484;BME280;2764;48.794;8.326;2023-02-23T00:39:26;76639.84;;;-140.34;100.00
5484;BME280;2764;48.794;8.326;2023-02-23T00:40:29;76639.84;;;-140.34;100.00
5484;BME280;2764;48.794;8.326;2023-02-23T00:41:31;76639.84;;;-140.34;100.00
5484;BME280;2764;48.794;8.326;2023-02-23T00:42:33;76635.81;;;-140.34;100.00
5484;BME280;2764;48.794;8.326;2023-02-23T00:43:39;76635.81;;;-140.34;100.00
5484;BME280;2764;48.794;8.326;2023-02-23T00:44:50;76635.81;;;-140.34;100.00
5484;BME280;2764;48.794;8.326;2023-02-23T00:45:54;76641.84;;;-140.34;100.00
5484;BME280;2764;48.794;8.326;2023-02-23T00:46:56;76635.81;;;-140.34;100.00
5484;BME280;2764;48.794;8.326;2023-02-23T00:47:57;76639.84;;;-140.34;100.00
5484;BME280;2764;48.794;8.326;2023-02-23T00:48:59;76635.81;;;-140.34;100.00
5484;BME280;2764;48.794;8.326;2023-02-23T00:50:02;76639.84;;;-140.34;100.00
5484;BME280;2764;48.794;8.326;2023-02-23T00:51:05;76635.81;;;-140.34;100.00
5484;BME280;2764;48.794;8.326;2023-02-23T00:52:07;76637.81;;;-140.34;100.00
5484;BME280;2764;48.794;8.326;2023-02-23T00:53:09;76635.81;;;-140.34;100.00
5484;BME280;2764;48.794;8.326;2023-02-23T00:54:13;76641.84;;;-140.34;100.00
5484;BME280;2764;48.794;8.326;2023-02-23T00:55:15;76643.84;;;-140.34;100.00
5484;BME280;2764;48.794;8.326;2023-02-23T00:56:17;76643.84;;;-140.34;100.00
5484;BME280;2764;48.794;8.326;2023-02-23T00:57:18;76643.84;;;-140.34;100.00
5484;BME280;2764;48.794;8.326;2023-02-23T00:58:21;76645.88;;;-140.34;100.00
5484;BME280;2764;48.794;8.326;2023-02-23T00:59:23;76639.84;;;-140.34;100.00
5484;BME280;2764;48.794;8.326;2023-02-23T01:00:25;76645.88;;;-140.34;100.00
5484;BME280;2764;48.794;8.326;2023-02-23T01:01:27;76641.84;;;-140.34;100.00
5484;BME280;2764;48.794;8.326;2023-02-23T01:02:28;76647.88;;;-140.34;100.00
5484;BME280;2764;48.794;8.326;2023-02-23T01:03:31;76643.84;;;-140.34;100.00
5484;BME280;2764;48.794;8.326;2023-02-23T01:04:33;76645.88;;;-140.34;100.00
5484;BME280;2764;48.794;8.326;2023-02-23T01:05:35;76641.84;;;-140.34;100.00
5484;BME280;2764;48.794;8.326;2023-02-23T01:06:37;76639.84;;;-140.34;100.00
5484;BME280;2764;48.794;8.326;2023-02-23T01:07:40;76639.84;;;-140.34;100.00
5484;BME280;2764;48.794;8.326;2023-02-23T01:08:44;76647.88;;;-140.34;100.00
5484;BME280;2764;48.794;8.326;2023-02-23T01:09:46;76641.84;;;-140.34;100.00
5484;BME280;2764;48.794;8.326;2023-02-23T01:10:48;76647.88;;;-140.34;100.00
5484;BME280;2764;48.794;8.326;2023-02-23T01:11:54;76639.84;;;-140.34;100.00
5484;BME280;2764;48.794;8.326;2023-02-23T01:12:57;76639.84;;;-140.34;100.00
5484;BME280;2764;48.794;8.326;2023-02-23T01:14:00;76639.84;;;-140.34;100.00
5484;BME280;2764;48.794;8.326;2023-02-23T01:15:02;76637.81;;;-140.34;100.00
5484;BME280;2764;48.794;8.326;2023-02-23T01:16:06;76633.81;;;-140.34;100.00
5484;BME280;2764;48.794;8.326;2023-02-23T01:17:08;76637.81;;;-140.34;100.00
5484;BME280;2764;48.794;8.326;2023-02-23T01:18:10;76641.84;;;-140.34;100.00
5484;BME280;2764;48.794;8.326;2023-02-23T01:19:11;76639.84;;;-140.34;100.00
5484;BME280;2764;48.794;8.326;2023-02-23T01:20:15;76637.81;;;-140.34;100.00
5484;BME280;2764;48.794;8.326;2023-02-23T01:21:38;76635.81;;;-140.34;100.00
5484;BME280;2764;48.794;8.326;2023-02-23T01:22:43;76635.81;;;-140.34;100.00
5484;BME280;2764;48.794;8.326;2023-02-23T01:23:46;76635.81;;;-140.34;100.00
5484;BME280;2764;48.794;8.326;2023-02-23T01:24:47;76631.78;;;-140.34;100.00
5484;BME280;2764;48.794;8.326;2023-02-23T01:25:50;76627.78;;;-140.34;100.00
5484;BME280;2764;48.794;8.326;2023-02-23T01:26:52;76629.78;;;-140.34;100.00
5484;BME280;2764;48.794;8.326;2023-02-23T01:27:54;76635.81;;;-140.34;100.00
5484;BME280;2764;48.794;8.326;2023-02-23T01:29:02;76635.81;;;-140.34;100.00
5484;BME280;2764;48.794;8.326;2023-02-23T01:30:06;76637.81;;;-140.34;100.00
5484;BME280;2764;48.794;8.326;2023-02-23T01:31:08;76635.81;;;-140.34;100.00
5484;BME280;2764;48.794;8.326;2023-02-23T01:32:10;76633.81;;;-140.34;100.00
5484;BME280;2764;48.794;8.326;2023-02-23T01:33:12;76633.81;;;-140.34;100.00
5484;BME280;2764;48.794;8.326;2023-02-23T01:34:14;76627.78;;;-140.34;100.00
5484;BME280;2764;48.794;8.326;2023-02-23T01:35:16;76627.78;;;-140.34;100.00
5484;BME280;2764;48.794;8.326;2023-02-23T01:36:18;76633.81;;;-140.34;100.00
5484;BME280;2764;48.794;8.326;2023-02-23T01:37:19;76631.78;;;-140.34;100.00
5484;BME280;2764;48.794;8.326;2023-02-23T01:38:21;76633.81;;;-140.34;100.00
5484;BME280;2764;48.794;8.326;2023-02-23T01:39:23;76633.81;;;-140.34;100.00
5484;BME280;2764;48.794;8.326;2023-02-23T01:40:25;76631.78;;;-140.34;100.00
5484;BME280;2764;48.794;8.326;2023-02-23T01:41:31;76635.81;;;-140.34;100.00
5484;BME280;2764;48.794;8.326;2023-02-23T01:42:36;76641.84;;;-140.34;100.00
5484;BME280;2764;48.794;8.326;2023-02-23T01:44:02;76635.81;;;-140.34;100.00
5484;BME280;2764;48.794;8.326;2023-02-23T01:46:34;76641.84;;;-140.34;100.00
5484;BME280;2764;48.794;8.326;2023-02-23T01:47:36;76631.78;;;-140.34;100.00
5484;BME280;2764;48.794;8.326;2023-02-23T01:48:39;76637.81;;;-140.34;100.00
5484;BME280;2764;48.794;8.326;2023-02-23T01:49:41;76635.81;;;-140.34;100.00
5484;BME280;2764;48.794;8.326;2023-02-23T01:51:08;76631.78;;;-140.34;100.00
5484;BME280;2764;48.794;8.326;2023-02-23T01:52:13;76633.81;;;-140.34;100.00
5484;BME280;2764;48.794;8.326;2023-02-23T01:53:18;76633.81;;;-140.34;100.00
5484;BME280;2764;48.794;8.326;2023-02-23T01:54:26;76635.81;;;-140.34;100.00
5484;BME280;2764;48.794;8.326;2023-02-23T01:55:30;76639.84;;;-140.34;100.00
5484;BME280;2764;48.794;8.326;2023-02-23T01:56:34;76641.84;;;-140.34;100.00
5484;BME280;2764;48.794;8.326;2023-02-23T01:57:38;76655.91;;;-140.34;100.00
5484;BME280;2764;48.794;8.326;2023-02-23T01:58:45;76651.91;;;-140.34;100.00
5484;BME280;2764;48.794;8.326;2023-02-23T01:59:49;76670.00;;;-140.34;100.00
5484;BME280;2764;48.794;8.326;2023-02-23T02:00:54;76653.91;;;-140.34;100.00
5484;BME280;2764;48.794;8.326;2023-02-23T02:01:56;76659.94;;;-140.34;100.00
5484;BME280;2764;48.794;8.326;2023-02-23T02:03:00;76659.94;;;-140.34;100.00
5484;BME280;2764;48.794;8.326;2023-02-23T02:04:03;76657.94;;;-140.34;100.00
5484;BME280;2764;48.794;8.326;2023-02-23T02:05:08;76653.91;;;-140.34;100.00
5484;BME280;2764;48.794;8.326;2023-02-23T02:06:16;76653.91;;;-140.34;100.00
5484;BME280;2764;48.794;8.326;2023-02-23T02:07:21;76667.97;;;-140.34;100.00
5484;BME280;2764;48.794;8.326;2023-02-23T02:08:25;76661.94;;;-140.34;100.00
5484;BME280;2764;48.794;8.326;2023-02-23T02:09:27;76657.94;;;-140.34;100.00
5484;BME280;2764;48.794;8.326;2023-02-23T02:10:29;76659.94;;;-140.34;100.00
5484;BME280;2764;48.794;8.326;2023-02-23T02:11:40;76651.91;;;-140.34;100.00
5484;BME280;2764;48.794;8.326;2023-02-23T02:12:51;76651.91;;;-140.34;100.00
5484;BME280;2764;48.794;8.326;2023-02-23T02:15:13;76661.94;;;-140.34;100.00
5484;BME280;2764;48.794;8.326;2023-02-23T02:16:29;76653.91;;;-140.34;100.00
5484;BME280;2764;48.794;8.326;2023-02-23T02:17:44;76651.91;;;-140.34;100.00
5484;BME280;2764;48.794;8.326;2023-02-23T02:19:42;76645.88;;;-140.34;100.00
5484;BME280;2764;48.794;8.326;2023-02-23T02:23:38;76653.91;;;-140.34;100.00
5484;BME280;2764;48.794;8.326;2023-02-23T02:28:43;76659.94;;;-140.34;100.00
5484;BME280;2764;48.794;8.326;2023-02-23T02:34:41;76651.91;;;-140.34;100.00
5484;BME280;2764;48.794;8.326;2023-02-23T02:38:40;76647.88;;;-140.34;100.00
5484;BME280;2764;48.794;8.326;2023-02-23T02:41:27;76639.84;;;-140.34;100.00
5484;BME280;2764;48.794;8.326;2023-02-23T02:42:47;76643.84;;;-140.34;100.00
5484;BME280;2764;48.794;8.326;2023-02-23T02:44:57;76643.84;;;-140.34;100.00
5484;BME280;2764;48.794;8.326;2023-02-23T02:46:17;76637.81;;;-140.34;100.00
5484;BME280;2764;48.794;8.326;2023-02-23T02:47:27;76631.78;;;-140.34;100.00
5484;BME280;2764;48.794;8.326;2023-02-23T02:48:53;76631.78;;;-140.34;100.00
5484;BME280;2764;48.794;8.326;2023-02-23T02:50:26;76629.78;;;-140.34;100.00
5484;BME280;2764;48.794;8.326;2023-02-23T02:51:46;76631.78;;;-140.34;100.00
5484;BME280;2764;48.794;8.326;2023-02-23T02:52:55;76631.78;;;-140.34;100.00
5484;BME280;2764;48.794;8.326;2023-02-23T02:54:11;76627.78;;;-140.34;100.00
5484;BME280;2764;48.794;8.326;2023-02-23T02:55:24;76629.78;;;-140.34;100.00
5484;BME280;2764;48.794;8.326;2023-02-23T02:56:27;76625.75;;;-140.34;100.00
5484;BME280;2764;48.794;8.326;2023-02-23T02:57:31;76627.78;;;-140.34;100.00
5484;BME280;2764;48.794;8.326;2023-02-23T02:58:33;76619.72;;;-140.34;100.00
5484;BME280;2764;48.794;8.326;2023-02-23T02:59:48;76621.75;;;-140.34;100.00
5484;BME280;2764;48.794;8.326;2023-02-23T03:01:14;76629.78;;;-140.34;100.00
5484;BME280;2764;48.794;8.326;2023-02-23T03:02:39;76635.81;;;-140.34;100.00
5484;BME280;2764;48.794;8.326;2023-02-23T03:04:16;76631.78;;;-140.34;100.00
5484;BME280;2764;48.794;8.326;2023-02-23T03:05:41;76627.78;;;-140.34;100.00
5484;BME280;2764;48.794;8.326;2023-02-23T03:07:22;76627.78;;;-140.34;100.00
5484;BME280;2764;48.794;8.326;2023-02-23T03:09:02;76631.78;;;-140.34;100.00
5484;BME280;2764;48.794;8.326;2023-02-23T03:11:09;76631.78;;;-140.34;100.00
5484;BME280;2764;48.794;8.326;2023-02-23T03:14:23;76645.88;;;-140.34;100.00
5484;BME280;2764;48.794;8.326;2023-02-23T03:16:22;76645.88;;;-140.34;100.00
5484;BME280;2764;48.794;8.326;2023-02-23T03:17:48;76643.84;;;-140.34;100.00
5484;BME280;2764;48.794;8.326;2023-02-23T03:19:20;76645.88;;;-140.34;100.00
5484;BME280;2764;48.794;8.326;2023-02-23T03:20:47;76643.84;;;-140.34;100.00
5484;BME280;2764;48.794;8.326;2023-02-23T03:22:22;76639.84;;;-140.34;100.00
5484;BME280;2764;48.794;8.326;2023-02-23T03:24:11;76643.84;;;-140.34;100.00
5484;BME280;2764;48.794;8.326;2023-02-23T03:25:59;76643.84;;;-140.34;100.00
5484;BME280;2764;48.794;8.326;2023-02-23T03:32:08;76643.84;;;-140.34;100.00
5484;BME280;2764;48.794;8.326;2023-02-23T03:34:11;76716.25;;;-140.34;100.00
5484;BME280;2764;48.794;8.326;2023-02-23T03:37:15;76639.84;;;-140.34;100.00
5484;BME280;2764;48.794;8.326;2023-02-23T03:38:46;76633.81;;;-140.34;100.00
5484;BME280;2764;48.794;8.326;2023-02-23T03:40:13;76637.81;;;-140.34;100.00
5484;BME280;2764;48.794;8.326;2023-02-23T03:41:39;76639.84;;;-140.34;100.00
5484;BME280;2764;48.794;8.326;2023-02-23T03:43:00;76631.78;;;-140.34;100.00
5484;BME280;2764;48.794;8.326;2023-02-23T03:44:29;76635.81;;;-140.34;100.00
5484;BME280;2764;48.794;8.326;2023-02-23T03:45:51;76631.78;;;-140.34;100.00
5484;BME280;2764;48.794;8.326;2023-02-23T03:47:16;76653.91;;;-140.34;100.00
5484;BME280;2764;48.794;8.326;2023-02-23T03:48:39;76633.81;;;-140.34;100.00
5484;BME280;2764;48.794;8.326;2023-02-23T03:50:06;76637.81;;;-140.34;100.00
5484;BME280;2764;48.794;8.326;2023-02-23T03:51:30;76637.81;;;-140.34;100.00
5484;BME280;2764;48.794;8.326;2023-02-23T03:52:55;76639.84;;;-140.34;100.00
5484;BME280;2764;48.794;8.326;2023-02-23T03:54:22;76639.84;;;-140.34;100.00
5484;BME280;2764;48.794;8.326;2023-02-23T03:55:50;76639.84;;;-140.34;100.00
5484;BME280;2764;48.794;8.326;2023-02-23T03:57:12;76635.81;;;-140.34;100.00
5484;BME280;2764;48.794;8.326;2023-02-23T03:58:44;76637.81;;;-140.34;100.00
5484;BME280;2764;48.794;8.326;2023-02-23T04:00:09;76633.81;;;-140.34;100.00
5484;BME280;2764;48.794;8.326;2023-02-23T04:01:31;76631.78;;;-140.34;100.00
5484;BME280;2764;48.794;8.326;2023-02-23T04:02:53;76629.78;;;-140.34;100.00
5484;BME280;2764;48.794;8.326;2023-02-23T04:04:16;76635.81;;;-140.34;100.00
5484;BME280;2764;48.794;8.326;2023-02-23T04:05:38;76623.75;;;-140.34;100.00
5484;BME280;2764;48.794;8.326;2023-02-23T04:07:01;76627.78;;;-140.34;100.00
5484;BME280;2764;48.794;8.326;2023-02-23T04:08:27;76627.78;;;-140.34;100.00
5484;BME280;2764;48.794;8.326;2023-02-23T04:09:50;76625.75;;;-140.34;100.00
5484;BME280;2764;48.794;8.326;2023-02-23T04:11:41;76631.78;;;-140.34;100.00
5484;BME280;2764;48.794;8.326;2023-02-23T04:13:14;76623.75;;;-140.34;100.00
5484;BME280;2764;48.794;8.326;2023-02-23T04:15:11;76623.75;;;-140.34;100.00
5484;BME280;2764;48.794;8.326;2023-02-23T04:15:50;76625.75;;;-140.34;100.00
5484;BME280;2764;48.794;8.326;2023-02-23T04:16:54;76623.75;;;-140.34;100.00
5484;BME280;2764;48.794;8.326;2023-02-23T04:17:57;76625.75;;;-140.34;100.00
5484;BME280;2764;48.794;8.326;2023-02-23T04:18:59;76625.75;;;-140.34;100.00
5484;BME280;2764;48.794;8.326;2023-02-23T04:20:02;76627.78;;;-140.34;100.00
5484;BME280;2764;48.794;8.326;2023-02-23T04:21:05;76629.78;;;-140.34;100.00
5484;BME280;2764;48.794;8.326;2023-02-23T04:22:07;76629.78;;;-140.34;100.00
5484;BME280;2764;48.794;8.326;2023-02-23T04:23:09;76629.78;;;-140.34;100.00
5484;BME280;2764;48.794;8.326;2023-02-23T04:24:11;76629.78;;;-140.34;100.00
5484;BME280;2764;48.794;8.326;2023-02-23T04:25:14;76627.78;;;-140.34;100.00
5484;BME280;2764;48.794;8.326;2023-02-23T04:26:17;76627.78;;;-140.34;100.00
5484;BME280;2764;48.794;8.326;2023-02-23T04:27:19;76627.78;;;-140.34;100.00
5484;BME280;2764;48.794;8.326;2023-02-23T04:28:23;76627.78;;;-140.34;100.00
5484;BME280;2764;48.794;8.326;2023-02-23T04:29:25;76625.75;;;-140.34;100.00
5484;BME280;2764;48.794;8.326;2023-02-23T04:30:27;76629.78;;;-140.34;100.00
5484;BME280;2764;48.794;8.326;2023-02-23T04:31:30;76621.75;;;-140.34;100.00
5484;BME280;2764;48.794;8.326;2023-02-23T04:32:31;76627.78;;;-140.34;100.00
5484;BME280;2764;48.794;8.326;2023-02-23T04:33:36;76629.78;;;-140.34;100.00
5484;BME280;2764;48.794;8.326;2023-02-23T04:34:38;76627.78;;;-140.34;100.00
5484;BME280;2764;48.794;8.326;2023-02-23T04:35:42;76629.78;;;-140.34;100.00
5484;BME280;2764;48.794;8.326;2023-02-23T04:36:44;76631.78;;;-140.34;100.00
5484;BME280;2764;48.794;8.326;2023-02-23T04:37:46;76629.78;;;-140.34;100.00
5484;BME280;2764;48.794;8.326;2023-02-23T04:38:48;76631.78;;;-140.34;100.00
5484;BME280;2764;48.794;8.326;2023-02-23T04:39:50;76629.78;;;-140.34;100.00
5484;BME280;2764;48.794;8.326;2023-02-23T04:40:51;76629.78;;;-140.34;100.00
5484;BME280;2764;48.794;8.326;2023-02-23T04:41:53;76637.81;;;-140.34;100.00
5484;BME280;2764;48.794;8.326;2023-02-23T04:42:55;76633.81;;;-140.34;100.00
5484;BME280;2764;48.794;8.326;2023-02-23T04:43:56;76635.81;;;-140.34;100.00
5484;BME280;2764;48.794;8.326;2023-02-23T04:44:58;76639.84;;;-140.34;100.00
5484;BME280;2764;48.794;8.326;2023-02-23T04:46:00;76637.81;;;-140.34;100.00
5484;BME280;2764;48.794;8.326;2023-02-23T04:47:02;76639.84;;;-140.34;100.00
5484;BME280;2764;48.794;8.326;2023-02-23T04:48:05;76641.84;;;-140.34;100.00
5484;BME280;2764;48.794;8.326;2023-02-23T04:49:07;76641.84;;;-140.34;100.00
5484;BME280;2764;48.794;8.326;2023-02-23T04:50:09;76643.84;;;-140.34;100.00
5484;BME280;2764;48.794;8.326;2023-02-23T04:51:11;76643.84;;;-140.34;100.00
5484;BME280;2764;48.794;8.326;2023-02-23T04:52:14;76641.84;;;-140.34;100.00
5484;BME280;2764;48.794;8.326;2023-02-23T04:53:15;76645.88;;;-140.34;100.00
5484;BME280;2764;48.794;8.326;2023-02-23T04:54:17;76641.84;;;-140.34;100.00
5484;BME280;2764;48.794;8.326;2023-02-23T04:55:22;76647.88;;;-140.34;100.00
5484;BME280;2764;48.794;8.326;2023-02-23T04:56:24;76645.88;;;-140.34;100.00
5484;BME280;2764;48.794;8.326;2023-02-23T04:57:26;76641.84;;;-140.34;100.00
5484;BME280;2764;48.794;8.326;2023-02-23T04:58:29;76643.84;;;-140.34;100.00
5484;BME280;2764;48.794;8.326;2023-02-23T04:59:31;76643.84;;;-140.34;100.00
5484;BME280;2764;48.794;8.326;2023-02-23T05:00:32;76651.91;;;-140.34;100.00
5484;BME280;2764;48.794;8.326;2023-02-23T05:01:34;76647.88;;;-140.34;100.00
5484;BME280;2764;48.794;8.326;2023-02-23T05:02:37;76643.84;;;-140.34;100.00
5484;BME280;2764;48.794;8.326;2023-02-23T05:03:39;76643.84;;;-140.34;100.00
5484;BME280;2764;48.794;8.326;2023-02-23T05:04:41;76649.88;;;-140.34;100.00
5484;BME280;2764;48.794;8.326;2023-02-23T05:05:43;76651.91;;;-140.34;100.00
5484;BME280;2764;48.794;8.326;2023-02-23T05:06:45;76647.88;;;-140.34;100.00
5484;BME280;2764;48.794;8.326;2023-02-23T05:07:47;76647.88;;;-140.34;100.00
5484;BME280;2764;48.794;8.326;2023-02-23T05:08:49;76647.88;;;-140.34;100.00
5484;BME280;2764;48.794;8.326;2023-02-23T05:09:50;76667.97;;;-140.34;100.00
5484;BME280;2764;48.794;8.326;2023-02-23T05:10:52;76649.88;;;-140.34;100.00
5484;BME280;2764;48.794;8.326;2023-02-23T05:11:54;76651.91;;;-140.34;100.00
5484;BME280;2764;48.794;8.326;2023-02-23T05:12:56;76649.88;;;-140.34;100.00
5484;BME280;2764;48.794;8.326;2023-02-23T05:13:58;76653.91;;;-140.34;100.00
5484;BME280;2764;48.794;8.326;2023-02-23T05:15:00;76655.91;;;-140.34;100.00
5484;BME280;2764;48.794;8.326;2023-02-23T05:16:01;76659.94;;;-140.34;100.00
5484;BME280;2764;48.794;8.326;2023-02-23T05:17:03;76659.94;;;-140.34;100.00
5484;BME280;2764;48.794;8.326;2023-02-23T05:18:07;76655.91;;;-140.34;100.00
5484;BME280;2764;48.794;8.326;2023-02-23T05:19:09;76659.94;;;-140.34;100.00
5484;BME280;2764;48.794;8.326;2023-02-23T05:20:12;76653.91;;;-140.34;100.00
5484;BME280;2764;48.794;8.326;2023-02-23T05:21:15;76651.91;;;-140.34;100.00
5484;BME280;2764;48.794;8.326;2023-02-23T05:22:16;76651.91;;;-140.34;100.00
5484;BME280;2764;48.794;8.326;2023-02-23T05:23:19;76651.91;;;-140.34;100.00
5484;BME280;2764;48.794;8.326;2023-02-23T05:24:22;76651.91;;;-140.34;100.00
5484;BME280;2764;48.794;8.326;2023-02-23T05:25:24;76655.91;;;-140.34;100.00
5484;BME280;2764;48.794;8.326;2023-02-23T05:26:26;76653.91;;;-140.34;100.00
5484;BME280;2764;48.794;8.326;2023-02-23T05:27:27;76649.88;;;-140.34;100.00
5484;BME280;2764;48.794;8.326;2023-02-23T05:28:29;76651.91;;;-140.34;100.00
5484;BME280;2764;48.794;8.326;2023-02-23T05:29:31;76655.91;;;-140.34;100.00
5484;BME280;2764;48.794;8.326;2023-02-23T05:30:33;76655.91;;;-140.34;100.00
5484;BME280;2764;48.794;8.326;2023-02-23T05:31:35;76651.91;;;-140.34;100.00
5484;BME280;2764;48.794;8.326;2023-02-23T05:32:37;76659.94;;;-140.34;100.00
5484;BME280;2764;48.794;8.326;2023-02-23T05:33:39;76651.91;;;-140.34;100.00
5484;BME280;2764;48.794;8.326;2023-02-23T05:34:44;76657.94;;;-140.34;100.00
5484;BME280;2764;48.794;8.326;2023-02-23T05:35:46;76661.94;;;-140.34;100.00
5484;BME280;2764;48.794;8.326;2023-02-23T05:36:48;76659.94;;;-140.34;100.00
5484;BME280;2764;48.794;8.326;2023-02-23T05:37:50;76663.97;;;-140.34;100.00
5484;BME280;2764;48.794;8.326;2023-02-23T05:38:53;76667.97;;;-140.34;100.00
5484;BME280;2764;48.794;8.326;2023-02-23T05:39:55;76672.00;;;-140.34;100.00
5484;BME280;2764;48.794;8.326;2023-02-23T05:40:56;76674.00;;;-140.34;100.00
5484;BME280;2764;48.794;8.326;2023-02-23T05:41:58;76676.03;;;-140.34;100.00
5484;BME280;2764;48.794;8.326;2023-02-23T05:43:00;76680.03;;;-140.34;100.00
5484;BME280;2764;48.794;8.326;2023-02-23T05:44:01;76684.06;;;-140.34;100.00
5484;BME280;2764;48.794;8.326;2023-02-23T05:45:03;76682.06;;;-140.34;100.00
5484;BME280;2764;48.794;8.326;2023-02-23T05:46:11;76680.03;;;-140.34;100.00
5484;BME280;2764;48.794;8.326;2023-02-23T05:47:15;76682.06;;;-140.34;100.00
5484;BME280;2764;48.794;8.326;2023-02-23T05:48:17;76678.03;;;-140.34;100.00
5484;BME280;2764;48.794;8.326;2023-02-23T05:49:19;76684.06;;;-140.34;100.00
5484;BME280;2764;48.794;8.326;2023-02-23T05:50:21;76686.06;;;-140.34;100.00
5484;BME280;2764;48.794;8.326;2023-02-23T05:51:23;76692.13;;;-140.34;100.00
5484;BME280;2764;48.794;8.326;2023-02-23T05:52:24;76692.13;;;-140.34;100.00
5484;BME280;2764;48.794;8.326;2023-02-23T05:53:26;76684.06;;;-140.34;100.00
5484;BME280;2764;48.794;8.326;2023-02-23T05:54:29;76686.06;;;-140.34;100.00
5484;BME280;2764;48.794;8.326;2023-02-23T05:55:30;76684.06;;;-140.34;100.00
5484;BME280;2764;48.794;8.326;2023-02-23T05:56:32;76684.06;;;-140.34;100.00
5484;BME280;2764;48.794;8.326;2023-02-23T05:57:34;76684.06;;;-140.34;100.00
5484;BME280;2764;48.794;8.326;2023-02-23T05:58:36;76684.06;;;-140.34;100.00
5484;BME280;2764;48.794;8.326;2023-02-23T05:59:38;76682.06;;;-140.34;100.00
5484;BME280;2764;48.794;8.326;2023-02-23T06:00:40;76682.06;;;-140.34;100.00
5484;BME280;2764;48.794;8.326;2023-02-23T06:01:41;76688.09;;;-140.34;100.00
5484;BME280;2764;48.794;8.326;2023-02-23T06:02:43;76678.03;;;-140.34;100.00
5484;BME280;2764;48.794;8.326;2023-02-23T06:03:45;76682.06;;;-140.34;100.00
5484;BME280;2764;48.794;8.326;2023-02-23T06:04:47;76674.00;;;-140.34;100.00
5484;BME280;2764;48.794;8.326;2023-02-23T06:05:53;76674.00;;;-140.34;100.00
5484;BME280;2764;48.794;8.326;2023-02-23T06:06:55;76674.00;;;-140.34;100.00
5484;BME280;2764;48.794;8.326;2023-02-23T06:07:57;61794.97;;;-140.35;100.00
5484;BME280;2764;48.794;8.326;2023-02-23T06:09:01;61794.97;;;-140.35;100.00
5484;BME280;2764;48.794;8.326;2023-02-23T06:10:04;61794.97;;;-140.35;100.00
5484;BME280;2764;48.794;8.326;2023-02-23T06:11:06;61794.97;;;-140.35;100.00
5484;BME280;2764;48.794;8.326;2023-02-23T06:12:08;61794.97;;;-140.35;100.00
5484;BME280;2764;48.794;8.326;2023-02-23T06:13:10;61794.97;;;-140.35;100.00
5484;BME280;2764;48.794;8.326;2023-02-23T06:14:12;61794.97;;;-140.35;100.00
5484;BME280;2764;48.794;8.326;2023-02-23T06:15:14;61794.97;;;-140.35;100.00
5484;BME280;2764;48.794;8.326;2023-02-23T06:16:16;61794.97;;;-140.35;100.00
5484;BME280;2764;48.794;8.326;2023-02-23T06:17:18;61794.97;;;-140.35;100.00
5484;BME280;2764;48.794;8.326;2023-02-23T06:18:19;61794.97;;;-140.35;100.00
5484;BME280;2764;48.794;8.326;2023-02-23T06:19:22;61794.97;;;-140.35;100.00
5484;BME280;2764;48.794;8.326;2023-02-23T06:20:24;61794.97;;;-140.35;100.00
5484;BME280;2764;48.794;8.326;2023-02-23T06:21:26;61794.97;;;-140.35;100.00
5484;BME280;2764;48.794;8.326;2023-02-23T06:22:28;61794.97;;;-140.35;100.00